Time;durP1;ratioP1;P1;durP2;ratioP2;P2;SDS_P1;SDS_P2;PMS_P1;PMS_P2;Temp;Humidity;BMP_temperature;BMP_pressure;BME280_temperature;BME280_humidity;BME280_pressure;Samples;Min_cycle;Max_cycle;Signal;HPM_P1;HPM_P2
2021/09/02 00:02:03;;;;;;;2.72;1.58;;;;;;;11.90;84.69;95424.63;5097016;28;20175;-77
2021/09/02 00:04:31;;;;;;;3.47;1.80;;;;;;;11.91;84.67;95434.09;5088557;28;20047;-79
2021/09/02 00:06:58;;;;;;;3.22;1.58;;;;;;;11.85;84.89;95439.16;5095714;28;20117;-79
2021/09/02 00:09:25;;;;;;;3.05;1.70;;;;;;;11.68;85.93;95425.16;5100316;28;20047;-79
2021/09/02 00:11:52;;;;;;;4.57;2.25;;;;;;;11.65;85.70;95431.63;5090572;28;20081;-79
2021/09/02 00:14:19;;;;;;;3.40;2.00;;;;;;;11.69;85.76;95436.41;5095783;28;20409;-78
2021/09/02 00:16:47;;;;;;;2.35;1.50;;;;;;;11.62;86.33;95439.88;5092619;28;20059;-78
2021/09/02 00:19:14;;;;;;;2.03;1.13;;;;;;;11.60;86.68;95439.31;5096092;28;20050;-78
2021/09/02 00:21:41;;;;;;;2.47;1.33;;;;;;;11.56;86.99;95443.38;5094166;28;20039;-78
2021/09/02 00:24:08;;;;;;;2.30;1.85;;;;;;;11.57;86.83;95444.97;5102214;28;20104;-78
2021/09/02 00:26:35;;;;;;;2.15;1.15;;;;;;;11.54;86.86;95437.59;5100130;27;20044;-78
2021/09/02 00:29:02;;;;;;;3.88;2.03;;;;;;;11.51;87.08;95435.44;5096561;28;20041;-78
2021/09/02 00:31:29;;;;;;;2.17;1.50;;;;;;;11.45;87.07;95431.06;5097408;28;20040;-78
2021/09/02 00:33:56;;;;;;;4.18;1.38;;;;;;;11.45;87.59;95437.13;5107338;28;20047;-78
2021/09/02 00:36:22;;;;;;;3.10;1.52;;;;;;;11.39;87.43;95437.19;5100287;28;20040;-78
2021/09/02 00:38:49;;;;;;;2.03;1.63;;;;;;;11.37;87.86;95439.22;5099083;28;20752;-78
2021/09/02 00:41:16;;;;;;;2.60;1.35;;;;;;;11.34;87.59;95439.66;5102101;28;20097;-78
2021/09/02 00:43:43;;;;;;;2.63;1.65;;;;;;;11.19;88.43;95417.38;5104606;28;20052;-78
2021/09/02 00:46:14;;;;;;;1.83;1.33;;;;;;;11.22;88.29;95435.19;5102028;28;20040;-78
2021/09/02 00:48:46;;;;;;;1.98;1.27;;;;;;;11.23;88.81;95438.59;5106742;28;20067;-78
2021/09/02 00:51:15;;;;;;;2.10;1.70;;;;;;;11.20;88.16;95434.63;5100639;28;20059;-78
2021/09/02 00:53:43;;;;;;;2.33;1.40;;;;;;;11.19;88.23;95435.63;5096525;28;20039;-78
2021/09/02 00:56:11;;;;;;;2.85;2.08;;;;;;;11.15;88.69;95428.47;5103355;28;20040;-79
2021/09/02 00:58:37;;;;;;;3.22;2.00;;;;;;;11.11;89.37;95425.50;5098139;28;20040;-79
2021/09/02 01:01:04;;;;;;;3.25;1.92;;;;;;;11.06;89.81;95427.97;5102924;28;20043;-77
2021/09/02 01:03:35;;;;;;;3.20;1.63;;;;;;;11.03;89.42;95416.16;5101880;28;20127;-78
2021/09/02 01:06:02;;;;;;;2.45;1.45;;;;;;;11.05;90.04;95423.75;5098288;28;20035;-78
2021/09/02 01:08:29;;;;;;;2.28;1.50;;;;;;;11.01;90.89;95417.41;5095304;28;20453;-78
2021/09/02 01:10:56;;;;;;;2.80;1.67;;;;;;;10.96;90.32;95406.84;5097909;28;20043;-79
2021/09/02 01:13:23;;;;;;;2.88;1.83;;;;;;;10.96;90.88;95409.44;5099907;28;20040;-78
2021/09/02 01:15:50;;;;;;;2.72;2.00;;;;;;;11.06;90.79;95417.53;5097666;28;20044;-78
2021/09/02 01:18:17;;;;;;;2.20;1.63;;;;;;;11.02;91.01;95416.38;5101153;28;20056;-78
2021/09/02 01:20:44;;;;;;;1.90;1.40;;;;;;;11.03;90.65;95405.72;5099643;28;20036;-78
2021/09/02 01:23:11;;;;;;;2.95;1.55;;;;;;;11.05;90.82;95400.31;5100864;27;20049;-78
2021/09/02 01:25:42;;;;;;;3.58;1.77;;;;;;;11.08;90.47;95410.31;5094604;28;20413;-79
2021/09/02 01:28:13;;;;;;;2.42;1.52;;;;;;;11.03;90.54;95404.94;5099195;28;20040;-79
2021/09/02 01:30:41;;;;;;;2.85;1.75;;;;;;;11.10;89.87;95408.25;5101094;28;20040;-76
2021/09/02 01:33:08;;;;;;;2.47;1.88;;;;;;;11.15;89.76;95412.84;5099627;28;20048;-78
2021/09/02 01:35:35;;;;;;;3.33;2.50;;;;;;;11.19;89.64;95412.16;5102513;28;20043;-78
2021/09/02 01:38:05;;;;;;;3.85;1.60;;;;;;;11.17;89.29;95406.38;5101982;27;20055;-78
2021/09/02 01:40:38;;;;;;;3.42;2.50;;;;;;;11.17;89.95;95408.19;5105635;28;20500;-79
2021/09/02 01:43:07;;;;;;;2.53;1.50;;;;;;;11.18;89.58;95404.56;5103348;28;20036;-78
2021/09/02 01:45:36;;;;;;;2.95;2.22;;;;;;;11.17;89.75;95413.41;5095612;28;20047;-78
2021/09/02 01:48:04;;;;;;;2.45;1.65;;;;;;;11.12;89.89;95406.22;5103118;28;20051;-79
2021/09/02 01:50:33;;;;;;;3.20;1.92;;;;;;;10.97;90.59;95388.38;5095112;28;20047;-78
2021/09/02 01:53:04;;;;;;;3.47;1.80;;;;;;;10.97;90.96;95398.00;5093578;28;20044;-79
2021/09/02 01:55:31;;;;;;;3.25;2.22;;;;;;;10.87;92.04;95404.50;5101937;28;20050;-78
2021/09/02 01:57:58;;;;;;;2.20;1.25;;;;;;;10.92;92.07;95403.88;5099017;28;20036;-79
2021/09/02 02:00:25;;;;;;;3.28;1.80;;;;;;;10.92;91.95;95400.47;5100549;28;20073;-79
2021/09/02 02:02:52;;;;;;;3.17;1.67;;;;;;;11.02;92.41;95411.97;5094718;28;20051;-79
2021/09/02 02:05:20;;;;;;;5.63;2.72;;;;;;;11.03;91.82;95410.16;5098540;28;20048;-80
2021/09/02 02:07:46;;;;;;;2.88;1.35;;;;;;;10.95;92.81;95410.44;5097882;28;20428;-79
2021/09/02 02:10:17;;;;;;;2.40;1.45;;;;;;;10.98;93.51;95415.22;5107731;28;20036;-80
2021/09/02 02:12:44;;;;;;;2.88;1.65;;;;;;;10.90;93.32;95411.13;5102739;28;20052;-79
2021/09/02 02:15:12;;;;;;;3.80;2.10;;;;;;;10.87;93.32;95404.50;5100497;28;20430;-79
2021/09/02 02:17:40;;;;;;;3.25;2.28;;;;;;;10.88;93.41;95416.53;5100194;28;20101;-80
2021/09/02 02:20:08;;;;;;;4.03;1.70;;;;;;;10.84;93.65;95411.97;5097107;28;20486;-80
2021/09/02 02:22:35;;;;;;;2.63;1.75;;;;;;;10.85;93.26;95410.97;5098009;28;20036;-80
2021/09/02 02:25:02;;;;;;;5.15;2.05;;;;;;;10.86;93.22;95418.56;5100375;28;20043;-80
2021/09/02 02:27:30;;;;;;;4.63;2.13;;;;;;;10.85;92.73;95413.56;5104038;28;20059;-79
2021/09/02 02:29:57;;;;;;;4.50;2.17;;;;;;;10.85;93.23;95416.97;5095600;28;20062;-80
2021/09/02 02:32:24;;;;;;;6.03;2.13;;;;;;;10.90;93.18;95419.72;5104449;28;20043;-80
2021/09/02 02:34:50;;;;;;;2.85;1.70;;;;;;;10.84;93.79;95412.78;5103968;28;20500;-80
2021/09/02 02:37:17;;;;;;;2.72;1.65;;;;;;;10.88;94.51;95424.34;5101152;28;20040;-81
2021/09/02 02:39:44;;;;;;;3.38;2.80;;;;;;;10.90;94.67;95424.94;5099513;28;20100;-81
2021/09/02 02:42:11;;;;;;;3.50;1.77;;;;;;;10.84;95.11;95423.22;5101394;28;20043;-80
2021/09/02 02:44:38;;;;;;;2.92;1.73;;;;;;;10.84;95.25;95420.59;5098698;28;20059;-80
2021/09/02 02:47:07;;;;;;;2.72;2.08;;;;;;;10.86;95.04;95429.00;5101127;28;20403;-81
2021/09/02 02:49:35;;;;;;;3.15;2.22;;;;;;;10.88;95.14;95431.38;5097493;28;20040;-81
2021/09/02 02:52:03;;;;;;;2.47;1.30;;;;;;;10.93;94.63;95428.13;5096263;28;20058;-80
2021/09/02 02:54:31;;;;;;;3.03;1.35;;;;;;;10.87;94.59;95427.97;5092686;28;20059;-81
2021/09/02 02:56:57;;;;;;;4.05;1.73;;;;;;;10.84;94.23;95432.81;5096088;28;20048;-81
2021/09/02 02:59:24;;;;;;;4.35;2.17;;;;;;;10.82;93.78;95427.84;5098595;28;20055;-81
2021/09/02 03:01:51;;;;;;;2.30;1.67;;;;;;;10.83;94.03;95423.41;5094620;28;20051;-78
2021/09/02 03:04:18;;;;;;;3.90;2.40;;;;;;;10.77;94.41;95430.31;5092619;28;20052;-78
2021/09/02 03:06:45;;;;;;;3.20;2.20;;;;;;;10.76;94.31;95423.47;5095740;28;20051;-78
2021/09/02 03:09:12;;;;;;;3.88;2.22;;;;;;;10.75;94.49;95427.13;5093518;28;20098;-80
2021/09/02 03:11:39;;;;;;;1.85;1.20;;;;;;;10.70;94.42;95434.78;5098246;28;20500;-79
2021/09/02 03:14:06;;;;;;;2.92;1.85;;;;;;;10.69;94.61;95428.75;5098654;28;20032;-78
2021/09/02 03:16:33;;;;;;;4.68;2.38;;;;;;;10.74;94.63;95438.53;5093225;28;20527;-78
2021/09/02 03:19:00;;;;;;;3.63;2.05;;;;;;;10.72;94.64;95432.75;5093034;28;20032;-79
2021/09/02 03:21:26;;;;;;;2.75;1.92;;;;;;;10.71;94.99;95436.34;5100684;28;20059;-80
2021/09/02 03:23:53;;;;;;;4.30;2.28;;;;;;;10.66;95.29;95434.41;5095227;28;20404;-79
2021/09/02 03:26:20;;;;;;;4.18;1.92;;;;;;;10.68;95.69;95421.19;5094418;28;20062;-80
2021/09/02 03:28:47;;;;;;;4.05;1.90;;;;;;;10.73;95.59;95434.34;5091933;28;20424;-79
2021/09/02 03:31:13;;;;;;;3.03;1.38;;;;;;;10.68;95.80;95424.56;5095709;28;20116;-79
2021/09/02 03:33:40;;;;;;;2.88;1.60;;;;;;;10.68;95.94;95421.19;5111155;28;20047;-80
2021/09/02 03:36:07;;;;;;;2.95;2.00;;;;;;;10.80;95.41;95436.88;5107979;28;20063;-79
2021/09/02 03:38:34;;;;;;;2.08;1.42;;;;;;;10.79;95.49;95433.47;5097508;27;20044;-80
2021/09/02 03:41:01;;;;;;;4.45;2.55;;;;;;;10.82;94.88;95427.84;5103401;28;20047;-79
2021/09/02 03:43:27;;;;;;;3.83;2.20;;;;;;;10.84;94.45;95431.03;5104197;28;20046;-80
2021/09/02 03:45:54;;;;;;;4.85;2.33;;;;;;;10.85;93.15;95429.22;5096054;28;20039;-80
2021/09/02 03:48:21;;;;;;;4.75;1.98;;;;;;;10.83;92.38;95434.63;5095839;28;20115;-80
2021/09/02 03:50:48;;;;;;;3.17;2.60;;;;;;;10.79;91.91;95423.06;5101870;28;20039;-79
2021/09/02 03:53:15;;;;;;;2.47;2.20;;;;;;;10.87;91.75;95440.22;5098623;28;20043;-79
2021/09/02 03:55:42;;;;;;;1.70;1.25;;;;;;;10.87;91.52;95443.59;5099451;28;20497;-80
2021/09/02 03:58:09;;;;;;;3.45;1.90;;;;;;;10.82;92.02;95446.09;5101752;28;20047;-80
2021/09/02 04:00:35;;;;;;;4.30;2.33;;;;;;;10.84;92.41;95445.84;5103077;28;20172;-79
2021/09/02 04:03:02;;;;;;;3.80;1.85;;;;;;;10.58;95.03;95457.34;5103976;28;20040;-79
2021/09/02 04:05:29;;;;;;;2.78;1.67;;;;;;;10.51;95.75;95447.78;5109604;28;20055;-79
2021/09/02 04:07:56;;;;;;;4.20;2.75;;;;;;;10.57;95.27;95455.75;5104111;28;20050;-80
2021/09/02 04:10:23;;;;;;;5.22;2.80;;;;;;;10.62;94.50;95455.91;5095985;28;20032;-79
2021/09/02 04:12:50;;;;;;;3.55;2.13;;;;;;;10.58;93.75;95447.72;5098841;28;20467;-80
2021/09/02 04:15:17;;;;;;;4.85;2.42;;;;;;;10.66;93.60;95444.03;5100484;28;20097;-79
2021/09/02 04:17:43;;;;;;;3.28;1.85;;;;;;;10.72;93.95;95448.38;5103036;28;20036;-79
2021/09/02 04:20:11;;;;;;;6.88;2.58;;;;;;;10.69;93.19;95446.22;5101758;28;20036;-79
2021/09/02 04:22:38;;;;;;;5.93;2.22;;;;;;;10.70;92.77;95451.19;5099877;28;20032;-79
2021/09/02 04:25:04;;;;;;;3.60;2.38;;;;;;;10.71;92.56;95463.22;5101654;28;20043;-79
2021/09/02 04:27:32;;;;;;;2.60;1.80;;;;;;;10.69;92.77;95456.63;5107981;28;20078;-79
2021/09/02 04:29:59;;;;;;;3.75;2.30;;;;;;;10.74;93.50;95451.56;5100947;28;20408;-79
2021/09/02 04:32:25;;;;;;;5.45;3.17;;;;;;;10.67;94.26;95461.25;5106545;28;20040;-80
2021/09/02 04:34:52;;;;;;;5.18;2.92;;;;;;;10.72;94.81;95461.41;5108248;28;20044;-80
2021/09/02 04:37:19;;;;;;;4.55;1.90;;;;;;;10.74;95.05;95466.41;5107041;28;20043;-80
2021/09/02 04:39:46;;;;;;;3.50;2.03;;;;;;;10.71;95.40;95462.41;5100247;28;20043;-80
2021/09/02 04:42:12;;;;;;;4.13;2.33;;;;;;;10.72;95.38;95458.81;5103603;28;20051;-79
2021/09/02 04:44:39;;;;;;;3.88;2.50;;;;;;;10.81;96.01;95473.13;5096604;28;20047;-79
2021/09/02 04:47:06;;;;;;;6.25;2.88;;;;;;;10.77;97.00;95472.00;5103120;28;20093;-79
2021/09/02 04:49:32;;;;;;;3.78;2.83;;;;;;;10.83;97.70;95475.53;5100723;28;20077;-78
2021/09/02 04:51:59;;;;;;;3.97;2.17;;;;;;;10.83;98.00;95471.13;5102640;28;20112;-78
2021/09/02 04:54:26;;;;;;;3.88;1.77;;;;;;;10.97;98.04;95481.41;5101380;28;20039;-79
2021/09/02 04:56:53;;;;;;;3.90;2.83;;;;;;;11.11;98.26;95477.66;5105765;27;20035;-79
2021/09/02 04:59:20;;;;;;;4.18;3.00;;;;;;;11.15;98.11;95481.41;5104105;28;20558;-79
2021/09/02 05:01:46;;;;;;;3.55;2.08;;;;;;;11.15;98.67;95473.59;5096692;28;20043;-78
2021/09/02 05:04:14;;;;;;;3.25;1.88;;;;;;;11.28;98.94;95470.81;5095035;28;20044;-79
2021/09/02 05:06:40;;;;;;;3.92;2.70;;;;;;;11.41;99.11;95471.66;5097447;28;20055;-78
2021/09/02 05:09:07;;;;;;;2.80;2.28;;;;;;;11.48;98.55;95472.38;5097571;28;20389;-79
2021/09/02 05:11:34;;;;;;;3.22;2.28;;;;;;;11.62;98.62;95468.59;5098794;28;20040;-79
2021/09/02 05:14:01;;;;;;;4.05;2.28;;;;;;;11.80;97.58;95480.00;5096217;28;20040;-79
2021/09/02 05:16:27;;;;;;;4.85;2.45;;;;;;;11.87;97.39;95480.69;5097982;28;20031;-79
2021/09/02 05:18:54;;;;;;;4.10;2.38;;;;;;;11.92;97.54;95482.66;5102044;28;20036;-79
2021/09/02 05:21:21;;;;;;;6.80;2.30;;;;;;;12.03;96.95;95489.75;5098959;28;20035;-79
2021/09/02 05:23:48;;;;;;;4.63;2.55;;;;;;;12.14;96.33;95485.56;5097883;28;20429;-79
2021/09/02 05:26:15;;;;;;;4.30;2.45;;;;;;;12.26;95.43;95483.75;5099996;28;20104;-79
2021/09/02 05:28:42;;;;;;;4.25;2.80;;;;;;;12.30;94.92;95479.69;5099905;28;20042;-80
2021/09/02 05:31:09;;;;;;;3.05;2.20;;;;;;;12.46;94.31;95482.63;5102890;28;20036;-78
2021/09/02 05:33:35;;;;;;;4.30;2.20;;;;;;;12.56;93.97;95488.09;5101630;28;20040;-78
2021/09/02 05:36:03;;;;;;;4.90;2.72;;;;;;;12.63;93.69;95489.56;5098004;28;20463;-78
2021/09/02 05:38:30;;;;;;;3.10;2.20;;;;;;;12.69;93.29;95487.88;5098413;28;20513;-78
2021/09/02 05:40:57;;;;;;;2.17;1.88;;;;;;;12.85;92.43;95490.81;5094422;28;20047;-78
2021/09/02 05:43:23;;;;;;;5.63;2.40;;;;;;;12.95;92.96;95480.59;5099770;28;20036;-78
2021/09/02 05:45:50;;;;;;;3.85;2.22;;;;;;;13.00;91.55;95483.31;5104690;28;20050;-80
2021/09/02 05:48:17;;;;;;;3.00;2.17;;;;;;;13.11;91.63;95481.72;5100382;27;20051;-81
2021/09/02 05:50:44;;;;;;;4.70;3.10;;;;;;;13.19;91.11;95486.56;5098834;28;20040;-80
2021/09/02 05:53:11;;;;;;;3.97;2.30;;;;;;;13.35;90.24;95490.31;5100835;28;20039;-80
2021/09/02 05:55:38;;;;;;;3.20;2.38;;;;;;;13.50;90.28;95498.44;5103088;28;20084;-80
2021/09/02 05:58:05;;;;;;;5.18;3.40;;;;;;;13.52;89.47;95480.72;5101818;28;20504;-79
2021/09/02 06:00:32;;;;;;;3.88;2.10;;;;;;;13.60;89.00;95486.63;5100442;28;20032;-78
2021/09/02 06:02:59;;;;;;;5.20;3.10;;;;;;;13.60;88.83;95470.91;5098793;28;20115;-79
2021/09/02 06:05:26;;;;;;;3.38;2.05;;;;;;;13.70;87.84;95476.31;5100305;28;20078;-79
2021/09/02 06:07:53;;;;;;;5.13;3.00;;;;;;;13.81;88.28;95480.72;5099562;28;20043;-80
2021/09/02 06:10:20;;;;;;;4.22;2.60;;;;;;;13.84;86.66;95472.38;5103897;28;20031;-80
2021/09/02 06:12:46;;;;;;;2.47;1.67;;;;;;;13.99;86.63;95484.16;5092873;28;20048;-80
2021/09/02 06:15:14;;;;;;;2.53;1.58;;;;;;;14.12;86.71;95483.88;5101648;28;20035;-80
2021/09/02 06:17:41;;;;;;;2.97;1.90;;;;;;;14.15;86.26;95467.66;5097647;28;20043;-80
2021/09/02 06:20:08;;;;;;;5.30;2.20;;;;;;;14.32;85.66;95484.19;5100960;28;20101;-81
2021/09/02 06:22:36;;;;;;;11.63;2.83;;;;;;;14.39;84.76;95472.75;5097933;28;20500;-81
2021/09/02 06:25:07;;;;;;;4.40;1.90;;;;;;;14.56;84.86;95484.00;5096418;28;20097;-80
2021/09/02 06:27:35;;;;;;;4.13;2.50;;;;;;;14.69;84.39;95481.09;5096003;28;20429;-80
2021/09/02 06:30:03;;;;;;;4.20;2.42;;;;;;;14.83;83.59;95473.66;5102646;28;20058;-80
2021/09/02 06:32:30;;;;;;;3.15;1.88;;;;;;;15.01;84.00;95485.72;5099401;27;20039;-80
2021/09/02 06:34:57;;;;;;;6.93;3.25;;;;;;;15.05;81.69;95481.59;5103803;28;20059;-80
2021/09/02 06:37:23;;;;;;;4.75;2.47;;;;;;;15.19;82.01;95486.47;5100870;28;20043;-80
2021/09/02 06:39:50;;;;;;;2.83;1.98;;;;;;;15.28;80.04;95496.28;5100558;28;20054;-80
2021/09/02 06:42:17;;;;;;;3.33;2.40;;;;;;;15.24;79.33;95495.19;5101859;28;20043;-80
2021/09/02 06:44:44;;;;;;;3.25;2.17;;;;;;;15.30;78.71;95498.66;5103454;28;20067;-80
2021/09/02 06:47:11;;;;;;;2.38;1.73;;;;;;;15.26;79.22;95487.09;5099843;28;20032;-80
2021/09/02 06:49:37;;;;;;;4.85;2.60;;;;;;;15.41;80.11;95497.78;5100606;28;20049;-79
2021/09/02 06:52:04;;;;;;;2.92;2.35;;;;;;;15.48;77.64;95493.13;5101783;28;20565;-77
2021/09/02 06:54:32;;;;;;;2.55;1.50;;;;;;;15.53;78.41;95486.34;5098989;28;20048;-78
2021/09/02 06:57:05;;;;;;;2.38;1.83;;;;;;;15.66;76.82;95493.84;5088194;27;20063;-81
2021/09/02 06:59:32;;;;;;;2.85;2.03;;;;;;;15.81;76.97;95494.03;5099403;28;20051;-79
2021/09/02 07:01:59;;;;;;;4.75;2.15;;;;;;;15.88;75.90;95482.53;5100808;27;20535;-76
2021/09/02 07:04:26;;;;;;;2.67;2.10;;;;;;;16.08;74.58;95495.06;5099293;28;20035;-77
2021/09/02 07:06:53;;;;;;;17.90;3.63;;;;;;;16.08;73.99;95495.88;5094196;28;20048;-76
2021/09/02 07:09:20;;;;;;;4.18;2.33;;;;;;;16.12;75.16;95489.06;5101018;28;20059;-77
2021/09/02 07:11:47;;;;;;;2.67;1.65;;;;;;;16.28;73.48;95495.25;5099730;28;20052;-79
2021/09/02 07:14:14;;;;;;;3.47;2.10;;;;;;;16.38;72.90;95497.16;5099834;28;20043;-79
2021/09/02 07:16:40;;;;;;;3.67;2.30;;;;;;;16.37;72.41;95490.34;5092413;28;20056;-80
2021/09/02 07:19:07;;;;;;;4.07;2.33;;;;;;;16.50;71.57;95492.53;5094305;28;20040;-80
2021/09/02 07:21:34;;;;;;;4.65;3.00;;;;;;;16.67;72.03;95502.09;5098755;27;20048;-82
2021/09/02 07:24:01;;;;;;;2.67;1.60;;;;;;;16.75;70.89;95496.38;5096162;28;20046;-81
2021/09/02 07:26:28;;;;;;;2.53;1.90;;;;;;;16.85;69.72;95496.47;5102161;27;20105;-81
2021/09/02 07:28:54;;;;;;;2.85;1.75;;;;;;;16.91;67.91;95516.50;5099595;28;20547;-82
2021/09/02 07:31:21;;;;;;;2.92;1.65;;;;;;;16.73;68.65;95498.47;5080973;28;20032;-83
2021/09/02 07:33:48;;;;;;;2.38;1.58;;;;;;;16.76;68.68;95509.28;5096698;28;20505;-82
2021/09/02 07:36:15;;;;;;;2.03;1.60;;;;;;;16.88;68.10;95500.44;5096713;27;20524;-83
2021/09/02 07:39:03;;;;;;;7.28;3.53;;;;;;;17.11;69.24;95509.78;5100332;28;20513;-83
2021/09/02 07:41:30;;;;;;;1.77;1.38;;;;;;;17.29;67.53;95505.94;5097868;28;20052;-82
2021/09/02 07:43:57;;;;;;;2.80;2.05;;;;;;;17.55;67.31;95509.44;5101228;28;21171;-82
2021/09/02 07:46:24;;;;;;;3.33;1.67;;;;;;;17.75;66.76;95499.00;5100327;27;20060;-83
2021/09/02 07:48:51;;;;;;;2.13;1.40;;;;;;;17.88;64.75;95496.91;5102037;28;20479;-78
2021/09/02 07:51:19;;;;;;;2.90;1.55;;;;;;;18.25;64.08;95506.47;5099777;27;20521;-81
2021/09/02 07:53:46;;;;;;;1.70;1.30;;;;;;;18.24;62.89;95499.59;5089155;28;20046;-80
2021/09/02 07:56:13;;;;;;;3.03;1.88;;;;;;;18.12;64.30;95498.03;5091966;28;20044;-80
2021/09/02 07:58:42;;;;;;;2.35;1.67;;;;;;;18.05;62.98;95505.38;5099827;28;20052;-81
2021/09/02 08:01:12;;;;;;;2.63;1.30;;;;;;;17.94;62.83;95490.63;5102282;27;20633;-80
2021/09/02 08:03:40;;;;;;;3.35;1.98;;;;;;;17.98;64.33;95504.84;5096652;28;20048;-76
2021/09/02 08:06:07;;;;;;;2.05;1.38;;;;;;;18.01;62.19;95501.69;5096802;28;20125;-79
2021/09/02 08:08:35;;;;;;;2.03;1.48;;;;;;;17.95;63.23;95508.00;5101124;28;20065;-80
2021/09/02 08:11:02;;;;;;;2.65;1.77;;;;;;;17.99;63.75;95503.81;5101889;28;20040;-78
2021/09/02 08:13:29;;;;;;;2.90;1.50;;;;;;;18.03;61.33;95496.19;5101317;28;20032;-79
2021/09/02 08:15:56;;;;;;;2.33;1.30;;;;;;;18.13;61.80;95483.81;5101118;28;20045;-80
2021/09/02 08:18:23;;;;;;;3.08;1.40;;;;;;;18.40;61.83;95493.31;5097404;28;20044;-80
2021/09/02 08:20:50;;;;;;;2.67;1.77;;;;;;;18.42;60.43;95496.47;5095049;28;20040;-78
2021/09/02 08:23:17;;;;;;;2.08;1.63;;;;;;;18.45;59.91;95489.88;5102053;28;20058;-79
2021/09/02 08:25:44;;;;;;;1.98;1.33;;;;;;;18.45;59.71;95485.38;5106533;28;20050;-80
2021/09/02 08:28:11;;;;;;;2.05;1.42;;;;;;;18.50;60.88;95482.75;5099014;28;20048;-79
2021/09/02 08:30:38;;;;;;;1.83;1.45;;;;;;;18.83;60.63;95491.16;5099653;28;20038;-81
2021/09/02 08:33:05;;;;;;;2.30;1.38;;;;;;;18.93;61.32;95490.38;5099847;28;20509;-80
2021/09/02 08:35:33;;;;;;;3.78;1.48;;;;;;;19.01;60.38;95491.66;5098503;28;20061;-77
2021/09/02 08:38:04;;;;;;;1.90;1.30;;;;;;;19.02;58.99;95498.53;5098471;28;20135;-78
2021/09/02 08:40:34;;;;;;;2.20;1.27;;;;;;;19.19;58.15;95501.63;5097071;28;20036;-78
2021/09/02 08:43:01;;;;;;;1.85;1.20;;;;;;;19.21;58.54;95485.53;5106491;28;20032;-77
2021/09/02 08:45:30;;;;;;;4.20;1.55;;;;;;;19.44;57.98;95494.69;5106950;28;20500;-77
2021/09/02 08:47:57;;;;;;;2.58;1.63;;;;;;;19.39;55.89;95497.34;5102509;28;20040;-77
2021/09/02 08:50:26;;;;;;;2.28;1.30;;;;;;;19.43;57.13;95493.13;5109231;28;20069;-80
2021/09/02 08:52:58;;;;;;;2.38;1.55;;;;;;;19.46;57.39;95487.28;5104262;28;20042;-77
2021/09/02 08:55:24;;;;;;;2.70;1.88;;;;;;;19.38;57.56;95490.50;5097431;28;20816;-79
2021/09/02 08:57:53;;;;;;;2.05;1.08;;;;;;;19.36;56.25;95484.72;5097946;28;20040;-81
2021/09/02 09:00:23;;;;;;;1.98;1.13;;;;;;;19.63;57.54;95477.19;5104787;28;20053;-79
2021/09/02 09:03:03;;;;;;;1.42;1.05;;;;;;;19.95;55.64;95473.34;5105993;28;20039;-79
2021/09/02 09:05:33;;;;;;;2.05;1.10;;;;;;;20.05;55.36;95462.69;5103025;28;20047;-77
2021/09/02 09:08:01;;;;;;;1.75;1.10;;;;;;;20.18;53.12;95487.69;5099349;28;20505;-79
2021/09/02 09:10:29;;;;;;;4.30;1.10;;;;;;;20.22;54.13;95477.38;5101906;28;20047;-76
2021/09/02 09:13:01;;;;;;;1.63;1.25;;;;;;;20.28;53.78;95460.41;5106364;28;20506;-79
2021/09/02 09:15:34;;;;;;;3.20;1.58;;;;;;;20.61;54.18;95458.03;5104910;28;20040;-78
2021/09/02 09:18:15;;;;;;;2.25;1.27;;;;;;;20.62;51.90;95480.78;5095776;28;20075;-78
2021/09/02 09:20:43;;;;;;;1.40;0.95;;;;;;;20.51;51.77;95473.97;5100147;28;20040;-78
2021/09/02 09:23:10;;;;;;;2.47;1.13;;;;;;;21.06;53.55;95469.22;5102860;28;20067;-79
2021/09/02 09:25:37;;;;;;;1.77;1.25;;;;;;;20.72;51.57;95406.56;5101571;28;20152;-76
2021/09/02 09:28:04;;;;;;;1.50;0.75;;;;;;;20.72;53.14;95470.09;5100744;27;20060;-78
2021/09/02 09:30:37;;;;;;;2.28;1.30;;;;;;;20.36;53.25;95466.94;5102188;28;20127;-78
2021/09/02 09:33:06;;;;;;;1.38;0.98;;;;;;;20.12;55.31;95461.59;5105041;28;20074;-78
2021/09/02 09:35:37;;;;;;;2.90;2.42;;;;;;;19.93;54.87;95464.88;5105601;28;20519;-78
2021/09/02 09:38:07;;;;;;;1.40;1.00;;;;;;;19.78;55.22;95468.41;5102592;28;20063;-79
2021/09/02 09:40:43;;;;;;;2.00;1.13;;;;;;;19.78;54.87;95462.34;5105528;28;20051;-79
2021/09/02 09:43:15;;;;;;;2.33;1.20;;;;;;;19.77;54.84;95466.03;5096788;28;20882;-77
2021/09/02 09:45:46;;;;;;;2.53;1.38;;;;;;;20.58;55.08;95474.44;5098449;28;20040;-79
2021/09/02 09:48:22;;;;;;;2.03;0.90;;;;;;;20.93;52.46;95461.97;5100674;28;20479;-80
2021/09/02 09:51:09;;;;;;;1.75;1.50;;;;;;;20.97;51.40;95455.03;5099329;28;20054;-80
2021/09/02 09:53:38;;;;;;;1.50;1.05;;;;;;;21.58;50.96;95454.31;5097846;27;20131;-79
2021/09/02 09:56:05;;;;;;;2.95;1.17;;;;;;;21.90;49.22;95455.50;5091473;28;20458;-78
2021/09/02 09:58:32;;;;;;;2.10;1.25;;;;;;;21.72;49.20;95453.63;5092582;28;20063;-79
2021/09/02 10:01:04;;;;;;;2.45;1.13;;;;;;;21.75;48.20;95468.94;5096454;28;20093;-79
2021/09/02 10:03:33;;;;;;;11.55;1.38;;;;;;;21.43;48.57;95451.84;5093272;28;20065;-80
2021/09/02 10:06:05;;;;;;;1.98;1.25;;;;;;;21.78;48.62;95449.81;5092552;28;20048;-79
2021/09/02 10:08:35;;;;;;;1.20;0.82;;;;;;;21.87;49.16;95458.69;5088794;28;20796;-79
2021/09/02 10:11:04;;;;;;;1.48;1.13;;;;;;;21.74;47.00;95464.72;5094131;28;20470;-79
2021/09/02 10:13:31;;;;;;;1.73;1.30;;;;;;;21.81;46.81;95462.50;5092114;28;20043;-78
2021/09/02 10:15:59;;;;;;;1.02;0.50;;;;;;;21.71;48.12;95457.34;5092819;28;20044;-80
2021/09/02 10:18:28;;;;;;;1.77;1.23;;;;;;;21.44;47.17;95452.63;5093489;28;20492;-81
2021/09/02 10:21:01;;;;;;;1.75;1.10;;;;;;;21.38;47.60;95457.22;5091869;28;20047;-80
2021/09/02 10:23:28;;;;;;;3.17;1.42;;;;;;;21.54;47.46;95458.63;5087616;28;20043;-80
2021/09/02 10:25:55;;;;;;;2.45;1.48;;;;;;;21.41;47.81;95459.31;5089791;28;20063;-79
2021/09/02 10:28:36;;;;;;;1.95;1.25;;;;;;;21.05;48.36;95451.78;5095908;27;20062;-80
2021/09/02 10:31:06;;;;;;;1.15;0.75;;;;;;;20.95;49.42;95463.25;5087329;28;20633;-79
2021/09/02 10:33:47;;;;;;;1.20;0.90;;;;;;;20.75;49.06;95453.66;5093463;27;20114;-80
2021/09/02 10:36:13;;;;;;;1.45;1.15;;;;;;;20.72;49.20;95459.50;5095184;28;20032;-79
2021/09/02 10:38:51;;;;;;;2.85;1.30;;;;;;;20.59;49.01;95460.13;5092677;27;20059;-79
2021/09/02 10:41:34;;;;;;;2.13;1.00;;;;;;;20.62;49.95;95449.03;5092838;28;20102;-80
2021/09/02 10:44:07;;;;;;;2.08;1.30;;;;;;;20.98;49.29;95451.31;5094476;28;20048;-81
2021/09/02 10:46:43;;;;;;;0.98;0.70;;;;;;;20.80;48.52;95450.97;5096269;28;20118;-81
2021/09/02 10:49:13;;;;;;;1.48;0.57;;;;;;;20.80;50.00;95448.31;5093074;28;20118;-81
2021/09/02 10:51:42;;;;;;;2.33;1.17;;;;;;;20.71;48.74;95442.06;5097742;28;20206;-81
2021/09/02 10:54:10;;;;;;;1.17;1.00;;;;;;;20.65;48.83;95443.16;5095467;28;20500;-81
2021/09/02 10:56:58;;;;;;;2.15;0.90;;;;;;;20.45;50.97;95449.41;5093681;28;20510;-81
2021/09/02 10:59:45;;;;;;;1.00;0.85;;;;;;;20.43;50.11;95441.75;5096210;28;20055;-81
2021/09/02 11:02:17;;;;;;;1.45;1.10;;;;;;;20.35;50.73;95444.22;5094886;28;20048;-81
2021/09/02 11:04:46;;;;;;;2.42;1.08;;;;;;;20.40;51.01;95439.69;5097556;28;20036;-81
2021/09/02 11:07:13;;;;;;;2.50;1.50;;;;;;;20.56;49.76;95442.16;5088837;28;20058;-80
2021/09/02 11:09:42;;;;;;;1.13;0.75;;;;;;;20.84;48.53;95439.81;5095961;28;20055;-80
2021/09/02 11:12:12;;;;;;;2.28;1.10;;;;;;;21.11;48.74;95442.69;5089198;28;20471;-80
2021/09/02 11:14:44;;;;;;;2.13;1.40;;;;;;;21.27;47.63;95438.00;5094698;28;20098;-79
2021/09/02 11:17:11;;;;;;;1.73;1.15;;;;;;;21.57;48.07;95447.47;5086768;28;20078;-79
2021/09/02 11:19:40;;;;;;;1.60;1.10;;;;;;;21.38;47.47;95438.66;5091548;28;20409;-81
2021/09/02 11:22:09;;;;;;;0.95;0.75;;;;;;;21.34;45.86;95448.25;5089719;28;20040;-80
2021/09/02 11:24:42;;;;;;;1.98;1.38;;;;;;;21.23;46.07;95437.00;5095448;28;20561;-81
2021/09/02 11:27:23;;;;;;;1.10;0.88;;;;;;;21.32;46.21;95445.91;5092332;28;20440;-80
2021/09/02 11:29:50;;;;;;;1.08;0.70;;;;;;;21.62;46.95;95437.84;5090082;28;20055;-81
2021/09/02 11:32:17;;;;;;;1.25;0.80;;;;;;;21.64;45.94;95441.00;5095689;28;20047;-81
2021/09/02 11:34:45;;;;;;;1.80;1.30;;;;;;;21.67;46.47;95445.75;5097192;28;20051;-81
2021/09/02 11:37:12;;;;;;;1.30;0.90;;;;;;;21.72;45.62;95446.47;5097475;28;20048;-81
2021/09/02 11:39:39;;;;;;;2.50;1.08;;;;;;;22.15;44.76;95440.28;5097891;28;20456;-81